sensor_id;sensor_type;location;lat;lon;timestamp;P1;durP1;ratioP1;P2;durP2;ratioP2
20709;SDS011;10516;51.518;9.864;2024-01-30T00:00:31;18.73;;;9.15;;
20709;SDS011;10516;51.518;9.864;2024-01-30T00:02:56;16.23;;;9.38;;
20709;SDS011;10516;51.518;9.864;2024-01-30T00:05:21;12.80;;;9.20;;
20709;SDS011;10516;51.518;9.864;2024-01-30T00:07:47;10.90;;;8.70;;
20709;SDS011;10516;51.518;9.864;2024-01-30T00:10:13;14.93;;;9.13;;
20709;SDS011;10516;51.518;9.864;2024-01-30T00:12:39;13.27;;;9.35;;
20709;SDS011;10516;51.518;9.864;2024-01-30T00:15:04;14.02;;;9.63;;
20709;SDS011;10516;51.518;9.864;2024-01-30T00:17:33;12.70;;;9.85;;
20709;SDS011;10516;51.518;9.864;2024-01-30T00:19:58;14.50;;;9.60;;
20709;SDS011;10516;51.518;9.864;2024-01-30T00:22:24;13.60;;;9.02;;
20709;SDS011;10516;51.518;9.864;2024-01-30T00:24:49;13.63;;;8.82;;
20709;SDS011;10516;51.518;9.864;2024-01-30T00:27:15;12.35;;;9.27;;
20709;SDS011;10516;51.518;9.864;2024-01-30T00:29:41;14.65;;;8.75;;
20709;SDS011;10516;51.518;9.864;2024-01-30T00:32:06;14.93;;;9.00;;
20709;SDS011;10516;51.518;9.864;2024-01-30T00:34:32;15.07;;;9.13;;
20709;SDS011;10516;51.518;9.864;2024-01-30T00:36:57;15.90;;;9.23;;
20709;SDS011;10516;51.518;9.864;2024-01-30T00:39:22;15.20;;;9.02;;
20709;SDS011;10516;51.518;9.864;2024-01-30T00:41:48;16.40;;;8.55;;
20709;SDS011;10516;51.518;9.864;2024-01-30T00:44:13;12.75;;;8.15;;
20709;SDS011;10516;51.518;9.864;2024-01-30T00:46:39;13.70;;;9.45;;
20709;SDS011;10516;51.518;9.864;2024-01-30T00:49:04;12.20;;;9.15;;
20709;SDS011;10516;51.518;9.864;2024-01-30T00:51:29;11.18;;;9.00;;
20709;SDS011;10516;51.518;9.864;2024-01-30T00:53:55;16.30;;;9.95;;
20709;SDS011;10516;51.518;9.864;2024-01-30T00:56:20;18.15;;;9.93;;
20709;SDS011;10516;51.518;9.864;2024-01-30T00:58:46;16.98;;;8.82;;
20709;SDS011;10516;51.518;9.864;2024-01-30T01:01:11;12.23;;;8.85;;
20709;SDS011;10516;51.518;9.864;2024-01-30T01:03:37;14.70;;;9.43;;
20709;SDS011;10516;51.518;9.864;2024-01-30T01:06:02;14.48;;;9.30;;
20709;SDS011;10516;51.518;9.864;2024-01-30T01:08:28;13.93;;;8.90;;
20709;SDS011;10516;51.518;9.864;2024-01-30T01:10:53;14.38;;;9.50;;
20709;SDS011;10516;51.518;9.864;2024-01-30T01:13:18;15.25;;;9.88;;
20709;SDS011;10516;51.518;9.864;2024-01-30T01:15:44;14.73;;;10.18;;
20709;SDS011;10516;51.518;9.864;2024-01-30T01:18:09;13.40;;;9.25;;
20709;SDS011;10516;51.518;9.864;2024-01-30T01:20:34;16.92;;;9.50;;
20709;SDS011;10516;51.518;9.864;2024-01-30T01:23:00;14.30;;;9.10;;
20709;SDS011;10516;51.518;9.864;2024-01-30T01:25:25;16.55;;;9.88;;
20709;SDS011;10516;51.518;9.864;2024-01-30T01:27:51;15.48;;;9.07;;
20709;SDS011;10516;51.518;9.864;2024-01-30T01:30:17;16.15;;;10.20;;
20709;SDS011;10516;51.518;9.864;2024-01-30T01:32:49;16.33;;;10.15;;
20709;SDS011;10516;51.518;9.864;2024-01-30T01:35:24;13.75;;;9.10;;
20709;SDS011;10516;51.518;9.864;2024-01-30T01:37:50;18.08;;;10.02;;
20709;SDS011;10516;51.518;9.864;2024-01-30T01:40:24;14.80;;;9.50;;
20709;SDS011;10516;51.518;9.864;2024-01-30T01:42:50;15.43;;;9.15;;
20709;SDS011;10516;51.518;9.864;2024-01-30T01:45:19;16.13;;;10.10;;
20709;SDS011;10516;51.518;9.864;2024-01-30T01:47:46;15.52;;;9.85;;
20709;SDS011;10516;51.518;9.864;2024-01-30T01:50:13;14.88;;;9.57;;
20709;SDS011;10516;51.518;9.864;2024-01-30T01:52:43;16.42;;;9.25;;
20709;SDS011;10516;51.518;9.864;2024-01-30T01:55:09;13.43;;;9.57;;
20709;SDS011;10516;51.518;9.864;2024-01-30T01:57:36;13.48;;;9.52;;
20709;SDS011;10516;51.518;9.864;2024-01-30T02:00:02;12.23;;;8.55;;
20709;SDS011;10516;51.518;9.864;2024-01-30T02:02:30;13.48;;;8.27;;
20709;SDS011;10516;51.518;9.864;2024-01-30T02:04:56;14.10;;;9.05;;
20709;SDS011;10516;51.518;9.864;2024-01-30T02:07:23;13.02;;;8.88;;
20709;SDS011;10516;51.518;9.864;2024-01-30T02:09:49;12.75;;;8.52;;
20709;SDS011;10516;51.518;9.864;2024-01-30T02:12:14;14.32;;;8.73;;
20709;SDS011;10516;51.518;9.864;2024-01-30T02:14:46;17.35;;;10.10;;
20709;SDS011;10516;51.518;9.864;2024-01-30T02:17:12;18.52;;;10.07;;
20709;SDS011;10516;51.518;9.864;2024-01-30T02:19:38;13.35;;;8.20;;
20709;SDS011;10516;51.518;9.864;2024-01-30T02:22:04;12.52;;;9.15;;
20709;SDS011;10516;51.518;9.864;2024-01-30T02:24:30;15.20;;;8.95;;
20709;SDS011;10516;51.518;9.864;2024-01-30T02:26:55;15.30;;;9.50;;
20709;SDS011;10516;51.518;9.864;2024-01-30T02:29:21;14.77;;;9.60;;
20709;SDS011;10516;51.518;9.864;2024-01-30T02:31:46;16.75;;;9.05;;
20709;SDS011;10516;51.518;9.864;2024-01-30T02:34:12;14.38;;;8.48;;
20709;SDS011;10516;51.518;9.864;2024-01-30T02:36:37;16.25;;;9.13;;
20709;SDS011;10516;51.518;9.864;2024-01-30T02:39:03;13.68;;;8.85;;
20709;SDS011;10516;51.518;9.864;2024-01-30T02:41:28;16.58;;;9.32;;
20709;SDS011;10516;51.518;9.864;2024-01-30T02:43:54;13.65;;;9.43;;
20709;SDS011;10516;51.518;9.864;2024-01-30T02:46:19;16.00;;;10.25;;
20709;SDS011;10516;51.518;9.864;2024-01-30T02:48:44;13.15;;;9.63;;
20709;SDS011;10516;51.518;9.864;2024-01-30T02:51:10;17.92;;;9.93;;
20709;SDS011;10516;51.518;9.864;2024-01-30T02:53:35;11.85;;;9.02;;
20709;SDS011;10516;51.518;9.864;2024-01-30T02:56:01;14.82;;;9.77;;
20709;SDS011;10516;51.518;9.864;2024-01-30T02:58:27;14.27;;;8.85;;
20709;SDS011;10516;51.518;9.864;2024-01-30T03:00:53;13.75;;;9.75;;
20709;SDS011;10516;51.518;9.864;2024-01-30T03:03:18;12.65;;;9.35;;
20709;SDS011;10516;51.518;9.864;2024-01-30T03:05:43;13.25;;;8.70;;
20709;SDS011;10516;51.518;9.864;2024-01-30T03:08:09;14.57;;;10.38;;
20709;SDS011;10516;51.518;9.864;2024-01-30T03:10:34;15.43;;;9.15;;
20709;SDS011;10516;51.518;9.864;2024-01-30T03:12:59;14.82;;;11.20;;
20709;SDS011;10516;51.518;9.864;2024-01-30T03:15:25;16.15;;;9.32;;
20709;SDS011;10516;51.518;9.864;2024-01-30T03:17:50;14.02;;;9.68;;
20709;SDS011;10516;51.518;9.864;2024-01-30T03:20:15;16.33;;;9.55;;
20709;SDS011;10516;51.518;9.864;2024-01-30T03:22:41;15.60;;;9.20;;
20709;SDS011;10516;51.518;9.864;2024-01-30T03:25:06;16.33;;;8.82;;
20709;SDS011;10516;51.518;9.864;2024-01-30T03:27:32;18.08;;;11.50;;
20709;SDS011;10516;51.518;9.864;2024-01-30T03:29:57;14.48;;;9.75;;
20709;SDS011;10516;51.518;9.864;2024-01-30T03:32:22;15.85;;;9.30;;
20709;SDS011;10516;51.518;9.864;2024-01-30T03:34:48;14.00;;;9.50;;
20709;SDS011;10516;51.518;9.864;2024-01-30T03:37:13;14.40;;;9.27;;
20709;SDS011;10516;51.518;9.864;2024-01-30T03:39:38;15.85;;;9.50;;
20709;SDS011;10516;51.518;9.864;2024-01-30T03:42:04;14.75;;;8.75;;
20709;SDS011;10516;51.518;9.864;2024-01-30T03:44:29;14.55;;;9.07;;
20709;SDS011;10516;51.518;9.864;2024-01-30T03:46:54;16.88;;;10.18;;
20709;SDS011;10516;51.518;9.864;2024-01-30T03:49:20;12.80;;;9.15;;
20709;SDS011;10516;51.518;9.864;2024-01-30T03:51:45;15.90;;;8.93;;
20709;SDS011;10516;51.518;9.864;2024-01-30T03:54:12;18.55;;;10.07;;
20709;SDS011;10516;51.518;9.864;2024-01-30T03:56:38;13.90;;;9.50;;
20709;SDS011;10516;51.518;9.864;2024-01-30T03:59:03;17.30;;;9.52;;
20709;SDS011;10516;51.518;9.864;2024-01-30T04:01:28;17.05;;;9.27;;
20709;SDS011;10516;51.518;9.864;2024-01-30T04:03:54;18.63;;;9.73;;
20709;SDS011;10516;51.518;9.864;2024-01-30T04:06:19;14.57;;;9.35;;
20709;SDS011;10516;51.518;9.864;2024-01-30T04:08:44;17.30;;;9.35;;
20709;SDS011;10516;51.518;9.864;2024-01-30T04:11:10;12.90;;;8.88;;
20709;SDS011;10516;51.518;9.864;2024-01-30T04:13:35;15.68;;;10.07;;
20709;SDS011;10516;51.518;9.864;2024-01-30T04:16:01;18.77;;;10.48;;
20709;SDS011;10516;51.518;9.864;2024-01-30T04:18:27;15.65;;;9.88;;
20709;SDS011;10516;51.518;9.864;2024-01-30T04:20:53;15.60;;;9.77;;
20709;SDS011;10516;51.518;9.864;2024-01-30T04:23:19;18.42;;;9.75;;
20709;SDS011;10516;51.518;9.864;2024-01-30T04:25:44;12.88;;;9.45;;
20709;SDS011;10516;51.518;9.864;2024-01-30T04:28:09;15.40;;;9.45;;
20709;SDS011;10516;51.518;9.864;2024-01-30T04:30:39;18.50;;;9.63;;
20709;SDS011;10516;51.518;9.864;2024-01-30T04:33:04;16.42;;;9.68;;
20709;SDS011;10516;51.518;9.864;2024-01-30T04:35:30;13.98;;;8.77;;
20709;SDS011;10516;51.518;9.864;2024-01-30T04:37:55;13.10;;;9.27;;
20709;SDS011;10516;51.518;9.864;2024-01-30T04:40:21;12.80;;;9.30;;
20709;SDS011;10516;51.518;9.864;2024-01-30T04:42:46;14.15;;;9.27;;
20709;SDS011;10516;51.518;9.864;2024-01-30T04:45:11;14.70;;;9.90;;
20709;SDS011;10516;51.518;9.864;2024-01-30T04:47:37;17.02;;;10.00;;
20709;SDS011;10516;51.518;9.864;2024-01-30T04:50:03;18.38;;;8.52;;
20709;SDS011;10516;51.518;9.864;2024-01-30T04:52:31;15.40;;;9.65;;
20709;SDS011;10516;51.518;9.864;2024-01-30T04:54:56;15.73;;;9.50;;
20709;SDS011;10516;51.518;9.864;2024-01-30T04:57:22;14.35;;;9.60;;
20709;SDS011;10516;51.518;9.864;2024-01-30T04:59:47;13.18;;;9.20;;
20709;SDS011;10516;51.518;9.864;2024-01-30T05:02:12;17.33;;;10.43;;
20709;SDS011;10516;51.518;9.864;2024-01-30T05:04:38;14.23;;;9.80;;
20709;SDS011;10516;51.518;9.864;2024-01-30T05:07:03;19.58;;;9.32;;
20709;SDS011;10516;51.518;9.864;2024-01-30T05:09:29;14.02;;;8.90;;
20709;SDS011;10516;51.518;9.864;2024-01-30T05:11:54;16.67;;;10.25;;
20709;SDS011;10516;51.518;9.864;2024-01-30T05:14:20;16.08;;;10.57;;
20709;SDS011;10516;51.518;9.864;2024-01-30T05:16:45;16.88;;;9.57;;
20709;SDS011;10516;51.518;9.864;2024-01-30T05:19:12;17.75;;;10.18;;
20709;SDS011;10516;51.518;9.864;2024-01-30T05:21:39;17.75;;;11.52;;
20709;SDS011;10516;51.518;9.864;2024-01-30T05:24:04;15.80;;;10.43;;
20709;SDS011;10516;51.518;9.864;2024-01-30T05:26:30;17.02;;;9.93;;
20709;SDS011;10516;51.518;9.864;2024-01-30T05:28:55;14.85;;;9.23;;
20709;SDS011;10516;51.518;9.864;2024-01-30T05:31:20;16.05;;;11.20;;
20709;SDS011;10516;51.518;9.864;2024-01-30T05:33:46;14.35;;;9.95;;
20709;SDS011;10516;51.518;9.864;2024-01-30T05:36:12;17.63;;;10.48;;
20709;SDS011;10516;51.518;9.864;2024-01-30T05:38:40;17.33;;;9.50;;
20709;SDS011;10516;51.518;9.864;2024-01-30T05:41:06;16.23;;;10.70;;
20709;SDS011;10516;51.518;9.864;2024-01-30T05:43:31;19.73;;;9.90;;
20709;SDS011;10516;51.518;9.864;2024-01-30T05:45:56;14.05;;;10.88;;
20709;SDS011;10516;51.518;9.864;2024-01-30T05:48:22;16.15;;;10.32;;
20709;SDS011;10516;51.518;9.864;2024-01-30T05:50:47;15.75;;;10.55;;
20709;SDS011;10516;51.518;9.864;2024-01-30T05:53:12;16.80;;;10.55;;
20709;SDS011;10516;51.518;9.864;2024-01-30T05:55:38;18.73;;;11.25;;
20709;SDS011;10516;51.518;9.864;2024-01-30T05:58:03;20.63;;;11.27;;
20709;SDS011;10516;51.518;9.864;2024-01-30T06:00:29;18.95;;;11.52;;
20709;SDS011;10516;51.518;9.864;2024-01-30T06:02:54;19.88;;;11.25;;
20709;SDS011;10516;51.518;9.864;2024-01-30T06:05:23;13.65;;;10.30;;
20709;SDS011;10516;51.518;9.864;2024-01-30T06:07:48;16.40;;;11.40;;
20709;SDS011;10516;51.518;9.864;2024-01-30T06:10:13;18.48;;;10.90;;
20709;SDS011;10516;51.518;9.864;2024-01-30T06:12:39;16.95;;;11.02;;
20709;SDS011;10516;51.518;9.864;2024-01-30T06:15:05;18.05;;;10.45;;
20709;SDS011;10516;51.518;9.864;2024-01-30T06:17:31;15.27;;;11.43;;
20709;SDS011;10516;51.518;9.864;2024-01-30T06:19:57;14.77;;;10.32;;
20709;SDS011;10516;51.518;9.864;2024-01-30T06:22:23;16.08;;;9.63;;
20709;SDS011;10516;51.518;9.864;2024-01-30T06:24:48;14.55;;;10.18;;
20709;SDS011;10516;51.518;9.864;2024-01-30T06:27:14;17.10;;;10.43;;
20709;SDS011;10516;51.518;9.864;2024-01-30T06:29:40;14.15;;;9.98;;
20709;SDS011;10516;51.518;9.864;2024-01-30T06:32:07;15.82;;;10.20;;
20709;SDS011;10516;51.518;9.864;2024-01-30T06:34:32;20.95;;;10.98;;
20709;SDS011;10516;51.518;9.864;2024-01-30T06:36:58;17.45;;;11.63;;
20709;SDS011;10516;51.518;9.864;2024-01-30T06:39:23;26.40;;;11.57;;
20709;SDS011;10516;51.518;9.864;2024-01-30T06:41:48;18.40;;;11.13;;
20709;SDS011;10516;51.518;9.864;2024-01-30T06:44:14;20.48;;;11.02;;
20709;SDS011;10516;51.518;9.864;2024-01-30T06:46:39;15.30;;;10.63;;
20709;SDS011;10516;51.518;9.864;2024-01-30T06:49:05;20.10;;;11.18;;
20709;SDS011;10516;51.518;9.864;2024-01-30T06:51:30;18.73;;;11.13;;
20709;SDS011;10516;51.518;9.864;2024-01-30T06:53:56;16.83;;;10.98;;
20709;SDS011;10516;51.518;9.864;2024-01-30T06:56:21;19.00;;;11.75;;
20709;SDS011;10516;51.518;9.864;2024-01-30T06:58:47;15.30;;;10.45;;
20709;SDS011;10516;51.518;9.864;2024-01-30T07:01:14;20.02;;;11.80;;
20709;SDS011;10516;51.518;9.864;2024-01-30T07:03:39;22.02;;;10.77;;
20709;SDS011;10516;51.518;9.864;2024-01-30T07:06:05;16.38;;;10.98;;
20709;SDS011;10516;51.518;9.864;2024-01-30T07:08:31;16.02;;;11.10;;
20709;SDS011;10516;51.518;9.864;2024-01-30T07:10:56;16.77;;;10.43;;
20709;SDS011;10516;51.518;9.864;2024-01-30T07:13:21;17.13;;;10.25;;
20709;SDS011;10516;51.518;9.864;2024-01-30T07:15:47;19.60;;;10.63;;
20709;SDS011;10516;51.518;9.864;2024-01-30T07:18:12;15.48;;;10.85;;
20709;SDS011;10516;51.518;9.864;2024-01-30T07:20:38;15.85;;;11.43;;
20709;SDS011;10516;51.518;9.864;2024-01-30T07:23:10;15.07;;;9.63;;
20709;SDS011;10516;51.518;9.864;2024-01-30T07:25:38;23.08;;;10.80;;
20709;SDS011;10516;51.518;9.864;2024-01-30T07:28:06;13.98;;;10.02;;
20709;SDS011;10516;51.518;9.864;2024-01-30T07:30:35;16.02;;;10.20;;
20709;SDS011;10516;51.518;9.864;2024-01-30T07:33:01;15.27;;;10.35;;
20709;SDS011;10516;51.518;9.864;2024-01-30T07:35:27;15.90;;;10.57;;
20709;SDS011;10516;51.518;9.864;2024-01-30T07:37:52;16.70;;;10.68;;
20709;SDS011;10516;51.518;9.864;2024-01-30T07:40:17;12.50;;;9.73;;
20709;SDS011;10516;51.518;9.864;2024-01-30T07:42:43;15.60;;;11.65;;
20709;SDS011;10516;51.518;9.864;2024-01-30T07:45:08;13.38;;;9.32;;
20709;SDS011;10516;51.518;9.864;2024-01-30T07:47:34;18.67;;;11.25;;
20709;SDS011;10516;51.518;9.864;2024-01-30T07:49:59;17.10;;;10.88;;
20709;SDS011;10516;51.518;9.864;2024-01-30T07:52:25;18.40;;;10.57;;
20709;SDS011;10516;51.518;9.864;2024-01-30T07:54:50;17.25;;;10.52;;
20709;SDS011;10516;51.518;9.864;2024-01-30T07:57:16;16.15;;;9.75;;
20709;SDS011;10516;51.518;9.864;2024-01-30T07:59:42;20.23;;;11.13;;
20709;SDS011;10516;51.518;9.864;2024-01-30T08:02:14;11.30;;;9.50;;
20709;SDS011;10516;51.518;9.864;2024-01-30T08:04:39;14.23;;;10.20;;
20709;SDS011;10516;51.518;9.864;2024-01-30T08:07:05;15.18;;;9.85;;
20709;SDS011;10516;51.518;9.864;2024-01-30T08:09:30;18.25;;;10.82;;
20709;SDS011;10516;51.518;9.864;2024-01-30T08:11:56;16.75;;;9.88;;
20709;SDS011;10516;51.518;9.864;2024-01-30T08:14:21;19.55;;;10.82;;
20709;SDS011;10516;51.518;9.864;2024-01-30T08:16:47;15.63;;;10.68;;
20709;SDS011;10516;51.518;9.864;2024-01-30T08:19:12;18.55;;;10.80;;
20709;SDS011;10516;51.518;9.864;2024-01-30T08:21:37;16.98;;;10.60;;
20709;SDS011;10516;51.518;9.864;2024-01-30T08:24:03;17.45;;;9.48;;
20709;SDS011;10516;51.518;9.864;2024-01-30T08:26:29;14.98;;;10.23;;
20709;SDS011;10516;51.518;9.864;2024-01-30T08:28:55;15.55;;;9.75;;
20709;SDS011;10516;51.518;9.864;2024-01-30T08:31:20;13.90;;;9.90;;
20709;SDS011;10516;51.518;9.864;2024-01-30T08:33:46;17.40;;;10.80;;
20709;SDS011;10516;51.518;9.864;2024-01-30T08:36:11;14.45;;;10.55;;
20709;SDS011;10516;51.518;9.864;2024-01-30T08:38:36;15.15;;;9.93;;
20709;SDS011;10516;51.518;9.864;2024-01-30T08:41:02;15.88;;;10.13;;
20709;SDS011;10516;51.518;9.864;2024-01-30T08:43:28;13.02;;;10.00;;
20709;SDS011;10516;51.518;9.864;2024-01-30T08:45:53;12.23;;;9.68;;
20709;SDS011;10516;51.518;9.864;2024-01-30T08:48:18;17.08;;;11.68;;
20709;SDS011;10516;51.518;9.864;2024-01-30T08:50:44;16.83;;;9.63;;
20709;SDS011;10516;51.518;9.864;2024-01-30T08:53:09;16.88;;;10.48;;
20709;SDS011;10516;51.518;9.864;2024-01-30T08:55:34;16.63;;;10.23;;
20709;SDS011;10516;51.518;9.864;2024-01-30T08:58:00;14.98;;;11.05;;
20709;SDS011;10516;51.518;9.864;2024-01-30T09:00:25;16.50;;;10.40;;
20709;SDS011;10516;51.518;9.864;2024-01-30T09:02:50;14.45;;;9.23;;
20709;SDS011;10516;51.518;9.864;2024-01-30T09:05:16;16.60;;;10.13;;
20709;SDS011;10516;51.518;9.864;2024-01-30T09:07:41;16.30;;;10.60;;
20709;SDS011;10516;51.518;9.864;2024-01-30T09:10:06;10.05;;;8.60;;
20709;SDS011;10516;51.518;9.864;2024-01-30T09:12:32;13.07;;;9.70;;
20709;SDS011;10516;51.518;9.864;2024-01-30T09:14:57;17.33;;;10.95;;
20709;SDS011;10516;51.518;9.864;2024-01-30T09:17:23;17.25;;;10.48;;
20709;SDS011;10516;51.518;9.864;2024-01-30T09:19:48;14.70;;;9.73;;
20709;SDS011;10516;51.518;9.864;2024-01-30T09:22:14;14.10;;;9.88;;
20709;SDS011;10516;51.518;9.864;2024-01-30T09:24:39;18.13;;;10.45;;
20709;SDS011;10516;51.518;9.864;2024-01-30T09:27:05;14.95;;;10.13;;
20709;SDS011;10516;51.518;9.864;2024-01-30T09:29:31;16.13;;;10.00;;
20709;SDS011;10516;51.518;9.864;2024-01-30T09:31:59;15.88;;;10.85;;
20709;SDS011;10516;51.518;9.864;2024-01-30T09:34:24;18.73;;;10.43;;
20709;SDS011;10516;51.518;9.864;2024-01-30T09:36:50;17.38;;;11.02;;
20709;SDS011;10516;51.518;9.864;2024-01-30T09:39:15;14.40;;;9.35;;
20709;SDS011;10516;51.518;9.864;2024-01-30T09:41:54;16.02;;;10.95;;
20709;SDS011;10516;51.518;9.864;2024-01-30T09:44:26;20.05;;;11.35;;
20709;SDS011;10516;51.518;9.864;2024-01-30T09:46:54;20.23;;;11.30;;
20709;SDS011;10516;51.518;9.864;2024-01-30T09:49:20;16.92;;;11.57;;
20709;SDS011;10516;51.518;9.864;2024-01-30T09:51:49;20.35;;;10.63;;
20709;SDS011;10516;51.518;9.864;2024-01-30T09:54:15;16.98;;;11.13;;
20709;SDS011;10516;51.518;9.864;2024-01-30T09:56:41;22.13;;;11.73;;
20709;SDS011;10516;51.518;9.864;2024-01-30T09:59:06;21.55;;;12.30;;
20709;SDS011;10516;51.518;9.864;2024-01-30T10:01:32;17.33;;;11.82;;
20709;SDS011;10516;51.518;9.864;2024-01-30T10:04:00;21.20;;;11.80;;
20709;SDS011;10516;51.518;9.864;2024-01-30T10:06:26;16.25;;;12.02;;
20709;SDS011;10516;51.518;9.864;2024-01-30T10:08:51;17.00;;;11.40;;
20709;SDS011;10516;51.518;9.864;2024-01-30T10:11:17;19.95;;;11.27;;
20709;SDS011;10516;51.518;9.864;2024-01-30T10:13:42;21.33;;;12.35;;
20709;SDS011;10516;51.518;9.864;2024-01-30T10:16:07;20.42;;;12.88;;
20709;SDS011;10516;51.518;9.864;2024-01-30T10:18:33;17.15;;;12.10;;
20709;SDS011;10516;51.518;9.864;2024-01-30T10:20:58;18.77;;;12.38;;
20709;SDS011;10516;51.518;9.864;2024-01-30T10:23:24;19.60;;;11.88;;
20709;SDS011;10516;51.518;9.864;2024-01-30T10:25:50;23.45;;;13.02;;
20709;SDS011;10516;51.518;9.864;2024-01-30T10:28:17;20.95;;;12.18;;
20709;SDS011;10516;51.518;9.864;2024-01-30T10:30:42;20.13;;;11.60;;
20709;SDS011;10516;51.518;9.864;2024-01-30T10:33:08;18.05;;;11.52;;
20709;SDS011;10516;51.518;9.864;2024-01-30T10:35:33;23.40;;;13.25;;
20709;SDS011;10516;51.518;9.864;2024-01-30T10:37:58;20.73;;;12.73;;
20709;SDS011;10516;51.518;9.864;2024-01-30T10:40:25;22.40;;;11.38;;
20709;SDS011;10516;51.518;9.864;2024-01-30T10:42:53;21.70;;;12.18;;
20709;SDS011;10516;51.518;9.864;2024-01-30T10:45:20;18.60;;;12.88;;
20709;SDS011;10516;51.518;9.864;2024-01-30T10:47:50;20.48;;;12.20;;
20709;SDS011;10516;51.518;9.864;2024-01-30T10:50:19;22.98;;;12.82;;
20709;SDS011;10516;51.518;9.864;2024-01-30T10:52:45;20.60;;;13.20;;
20709;SDS011;10516;51.518;9.864;2024-01-30T10:55:12;25.38;;;14.25;;
20709;SDS011;10516;51.518;9.864;2024-01-30T10:57:38;23.63;;;13.23;;
20709;SDS011;10516;51.518;9.864;2024-01-30T11:00:08;21.45;;;13.27;;
20709;SDS011;10516;51.518;9.864;2024-01-30T11:02:36;23.42;;;13.73;;
20709;SDS011;10516;51.518;9.864;2024-01-30T11:05:04;18.67;;;11.23;;
20709;SDS011;10516;51.518;9.864;2024-01-30T11:07:30;20.05;;;12.73;;
20709;SDS011;10516;51.518;9.864;2024-01-30T11:12:24;16.52;;;11.48;;
20709;SDS011;10516;51.518;9.864;2024-01-30T11:14:50;20.73;;;11.60;;
20709;SDS011;10516;51.518;9.864;2024-01-30T11:17:28;18.15;;;11.40;;
20709;SDS011;10516;51.518;9.864;2024-01-30T11:19:53;21.52;;;12.52;;
20709;SDS011;10516;51.518;9.864;2024-01-30T11:22:20;18.02;;;11.95;;
20709;SDS011;10516;51.518;9.864;2024-01-30T11:24:45;17.58;;;11.40;;
20709;SDS011;10516;51.518;9.864;2024-01-30T11:27:12;16.77;;;11.63;;
20709;SDS011;10516;51.518;9.864;2024-01-30T11:29:39;17.80;;;11.95;;
20709;SDS011;10516;51.518;9.864;2024-01-30T11:32:05;19.25;;;12.02;;
20709;SDS011;10516;51.518;9.864;2024-01-30T11:34:32;17.77;;;12.18;;
20709;SDS011;10516;51.518;9.864;2024-01-30T11:36:59;16.90;;;11.57;;
20709;SDS011;10516;51.518;9.864;2024-01-30T11:39:32;15.35;;;11.70;;
20709;SDS011;10516;51.518;9.864;2024-01-30T11:41:57;17.75;;;11.52;;
20709;SDS011;10516;51.518;9.864;2024-01-30T11:44:23;16.85;;;12.20;;
20709;SDS011;10516;51.518;9.864;2024-01-30T11:46:49;18.70;;;12.45;;
20709;SDS011;10516;51.518;9.864;2024-01-30T11:49:15;18.58;;;11.77;;
20709;SDS011;10516;51.518;9.864;2024-01-30T11:51:42;15.57;;;11.13;;
20709;SDS011;10516;51.518;9.864;2024-01-30T11:54:08;14.43;;;10.25;;
20709;SDS011;10516;51.518;9.864;2024-01-30T11:56:33;14.93;;;11.50;;
20709;SDS011;10516;51.518;9.864;2024-01-30T11:58:59;16.73;;;11.25;;
20709;SDS011;10516;51.518;9.864;2024-01-30T12:01:25;14.40;;;10.05;;
20709;SDS011;10516;51.518;9.864;2024-01-30T12:03:51;16.05;;;10.30;;
20709;SDS011;10516;51.518;9.864;2024-01-30T12:06:17;19.65;;;10.70;;
20709;SDS011;10516;51.518;9.864;2024-01-30T12:08:42;19.25;;;11.82;;
20709;SDS011;10516;51.518;9.864;2024-01-30T12:11:08;15.20;;;11.18;;
20709;SDS011;10516;51.518;9.864;2024-01-30T12:13:33;16.58;;;10.07;;
20709;SDS011;10516;51.518;9.864;2024-01-30T12:15:59;16.88;;;10.55;;
20709;SDS011;10516;51.518;9.864;2024-01-30T12:18:25;16.13;;;11.02;;
20709;SDS011;10516;51.518;9.864;2024-01-30T12:20:58;16.13;;;10.52;;
20709;SDS011;10516;51.518;9.864;2024-01-30T12:23:24;16.63;;;9.75;;
20709;SDS011;10516;51.518;9.864;2024-01-30T12:25:51;15.55;;;10.43;;
20709;SDS011;10516;51.518;9.864;2024-01-30T12:28:17;14.10;;;11.23;;
20709;SDS011;10516;51.518;9.864;2024-01-30T12:30:42;13.98;;;9.70;;
20709;SDS011;10516;51.518;9.864;2024-01-30T12:33:08;15.90;;;10.65;;
20709;SDS011;10516;51.518;9.864;2024-01-30T12:35:35;17.02;;;11.38;;
20709;SDS011;10516;51.518;9.864;2024-01-30T12:38:00;17.48;;;10.55;;
20709;SDS011;10516;51.518;9.864;2024-01-30T12:40:26;19.92;;;12.98;;
20709;SDS011;10516;51.518;9.864;2024-01-30T12:42:51;22.77;;;13.48;;
20709;SDS011;10516;51.518;9.864;2024-01-30T12:45:17;20.23;;;11.25;;
20709;SDS011;10516;51.518;9.864;2024-01-30T12:47:47;15.88;;;10.50;;
20709;SDS011;10516;51.518;9.864;2024-01-30T12:50:12;17.77;;;11.00;;
20709;SDS011;10516;51.518;9.864;2024-01-30T12:52:40;15.50;;;11.05;;
20709;SDS011;10516;51.518;9.864;2024-01-30T12:55:06;14.77;;;10.45;;
20709;SDS011;10516;51.518;9.864;2024-01-30T12:57:31;18.90;;;10.82;;
20709;SDS011;10516;51.518;9.864;2024-01-30T12:59:57;17.42;;;11.18;;
20709;SDS011;10516;51.518;9.864;2024-01-30T13:02:23;12.63;;;9.85;;
20709;SDS011;10516;51.518;9.864;2024-01-30T13:04:48;13.38;;;10.50;;
20709;SDS011;10516;51.518;9.864;2024-01-30T13:07:14;16.67;;;9.52;;
20709;SDS011;10516;51.518;9.864;2024-01-30T13:09:39;15.45;;;10.00;;
20709;SDS011;10516;51.518;9.864;2024-01-30T13:12:05;17.88;;;10.77;;
20709;SDS011;10516;51.518;9.864;2024-01-30T13:14:31;15.60;;;10.13;;
20709;SDS011;10516;51.518;9.864;2024-01-30T13:16:57;15.43;;;10.60;;
20709;SDS011;10516;51.518;9.864;2024-01-30T13:19:22;13.07;;;10.02;;
20709;SDS011;10516;51.518;9.864;2024-01-30T13:21:48;17.98;;;10.15;;
20709;SDS011;10516;51.518;9.864;2024-01-30T13:24:13;14.30;;;10.57;;
20709;SDS011;10516;51.518;9.864;2024-01-30T13:26:39;14.55;;;11.18;;
20709;SDS011;10516;51.518;9.864;2024-01-30T13:29:04;12.82;;;9.30;;
20709;SDS011;10516;51.518;9.864;2024-01-30T13:31:30;15.93;;;10.60;;
20709;SDS011;10516;51.518;9.864;2024-01-30T13:33:55;15.27;;;10.88;;
20709;SDS011;10516;51.518;9.864;2024-01-30T13:36:21;15.32;;;9.57;;
20709;SDS011;10516;51.518;9.864;2024-01-30T13:38:47;16.85;;;11.00;;
20709;SDS011;10516;51.518;9.864;2024-01-30T13:41:12;17.30;;;10.80;;
20709;SDS011;10516;51.518;9.864;2024-01-30T13:43:38;17.88;;;10.30;;
20709;SDS011;10516;51.518;9.864;2024-01-30T13:46:03;15.35;;;10.00;;
20709;SDS011;10516;51.518;9.864;2024-01-30T13:48:29;15.45;;;9.43;;
20709;SDS011;10516;51.518;9.864;2024-01-30T13:50:55;16.55;;;9.30;;
20709;SDS011;10516;51.518;9.864;2024-01-30T13:53:20;14.00;;;9.75;;
20709;SDS011;10516;51.518;9.864;2024-01-30T13:55:46;14.50;;;9.18;;
20709;SDS011;10516;51.518;9.864;2024-01-30T13:58:12;13.80;;;9.48;;
20709;SDS011;10516;51.518;9.864;2024-01-30T14:00:37;16.30;;;10.45;;
20709;SDS011;10516;51.518;9.864;2024-01-30T14:03:03;14.48;;;9.13;;
20709;SDS011;10516;51.518;9.864;2024-01-30T14:05:29;19.80;;;9.25;;
20709;SDS011;10516;51.518;9.864;2024-01-30T14:07:55;13.57;;;9.55;;
20709;SDS011;10516;51.518;9.864;2024-01-30T14:10:22;15.77;;;9.90;;
20709;SDS011;10516;51.518;9.864;2024-01-30T14:12:51;13.27;;;8.95;;
20709;SDS011;10516;51.518;9.864;2024-01-30T14:15:17;15.25;;;9.02;;
20709;SDS011;10516;51.518;9.864;2024-01-30T14:17:46;18.73;;;10.25;;
20709;SDS011;10516;51.518;9.864;2024-01-30T14:20:13;12.38;;;9.38;;
20709;SDS011;10516;51.518;9.864;2024-01-30T14:22:39;13.27;;;9.98;;